Madison, Alabama
Current Conditions -  °F | °C
As of 6:53 PM on Friday 24 Oct 2014 (Local Time) from KHSV Reporting Station
Scattered Clouds Scattered Clouds  
Wind Chill: 63°   Ceiling: Unl
Heat Index: 63°   Visibility: 10mi
Dew Point: 38°   Wind: 3mph
Humidity: 40%   Direction: 350°N
Pressure: 30.06"   Gusts: NA
Location:  34.71°N, 86.75°W
Report Text: KHSV 242353Z 35003KT 10SM SCT250 17/03 A3006 RMK AO2 SLP178 T01720033 10239 20172 53004
Loading
Personal Weather Stations






























Interactive Weather Map
Tropical Storm Tracking
New forecast layout! Learn more

10-Day Weather Forecast

Advertisements
Track Severe Weather on mobile